地図

経路データ

SID SEASON NUMBER BASIN SUBBASIN NAME ISO_TIME NATURE LAT LON WMO_WIND WMO_PRES WMO_AGENCY TRACK_TYPE DIST2LAND LANDFALL IFLAG USA_AGENCY USA_ATCF_ID USA_LAT USA_LON USA_RECORD USA_STATUS USA_WIND USA_PRES USA_SSHS USA_R34_NE USA_R34_SE USA_R34_SW USA_R34_NW USA_R50_NE USA_R50_SE USA_R50_SW USA_R50_NW USA_R64_NE USA_R64_SE USA_R64_SW USA_R64_NW USA_POCI USA_ROCI USA_RMW USA_EYE TOKYO_LAT TOKYO_LON TOKYO_GRADE TOKYO_WIND TOKYO_PRES TOKYO_R50_DIR TOKYO_R50_LONG TOKYO_R50_SHORT TOKYO_R30_DIR TOKYO_R30_LONG TOKYO_R30_SHORT TOKYO_LAND CMA_LAT CMA_LON CMA_CAT CMA_WIND CMA_PRES HKO_LAT HKO_LON HKO_CAT HKO_WIND HKO_PRES NEWDELHI_LAT NEWDELHI_LON NEWDELHI_GRADE NEWDELHI_WIND NEWDELHI_PRES NEWDELHI_CI NEWDELHI_DP NEWDELHI_POCI REUNION_LAT REUNION_LON REUNION_TYPE REUNION_WIND REUNION_PRES REUNION_TNUM REUNION_CI REUNION_RMW REUNION_R34_NE REUNION_R34_SE REUNION_R34_SW REUNION_R34_NW REUNION_R50_NE REUNION_R50_SE REUNION_R50_SW REUNION_R50_NW REUNION_R64_NE REUNION_R64_SE REUNION_R64_SW REUNION_R64_NW BOM_LAT BOM_LON BOM_TYPE BOM_WIND BOM_PRES BOM_TNUM BOM_CI BOM_RMW BOM_R34_NE BOM_R34_SE BOM_R34_SW BOM_R34_NW BOM_R50_NE BOM_R50_SE BOM_R50_SW BOM_R50_NW BOM_R64_NE BOM_R64_SE BOM_R64_SW BOM_R64_NW BOM_ROCI BOM_POCI BOM_EYE BOM_POS_METHOD BOM_PRES_METHOD NADI_LAT NADI_LON NADI_CAT NADI_WIND NADI_PRES WELLINGTON_LAT WELLINGTON_LON WELLINGTON_WIND WELLINGTON_PRES DS824_LAT DS824_LON DS824_STAGE DS824_WIND DS824_PRES TD9636_LAT TD9636_LON TD9636_STAGE TD9636_WIND TD9636_PRES TD9635_LAT TD9635_LON TD9635_WIND TD9635_PRES TD9635_ROCI NEUMANN_LAT NEUMANN_LON NEUMANN_CLASS NEUMANN_WIND NEUMANN_PRES MLC_LAT MLC_LON MLC_CLASS MLC_WIND MLC_PRES USA_GUST BOM_GUST BOM_GUST_PER REUNION_GUST REUNION_GUST_PER USA_SEAHGT USA_SEARAD_NE USA_SEARAD_SE USA_SEARAD_SW USA_SEARAD_NW STORM_SPEED STORM_DIR
1984282N11263 1984 93 EP MM RACHEL 1984-10-07 18:00:00 TS 11.2000 -97.0000 25 hurdat_epa main 494 494 O_________O___ hurdat_epa EP181984 11.2000 -97.0000 TD 25 -1 11.2000 -97.0000 1 25 10 276
1984282N11263 1984 93 EP MM RACHEL 1984-10-07 21:00:00 TS 11.2494 -97.5002 main 502 491 P_________P___ EP181984 11.2477 -97.5000 TD 25 -1 11.2545 -97.5008 1 25 10 276
1984282N11263 1984 93 EP MM RACHEL 1984-10-08 00:00:00 TS 11.3000 -98.0000 25 hurdat_epa main 504 504 O_________O___ hurdat_epa EP181984 11.3000 -98.0000 TD 25 -1 11.3000 -98.0000 1 25 10 276
1984282N11263 1984 93 EP MM RACHEL 1984-10-08 03:00:00 TS 11.3509 -98.4992 main 513 513 P_________P___ EP181984 11.3574 -98.5000 TD 25 -1 11.3312 -98.4967 1 25 10 275
1984282N11263 1984 93 EP MM RACHEL 1984-10-08 06:00:00 TS 11.3883 -98.9984 25 hurdat_epa main 531 531 O_________P___ hurdat_epa EP181984 11.4000 -99.0000 TD 25 -1 11.3531 -98.9934 1 25 10 272
1984282N11263 1984 93 EP MM RACHEL 1984-10-08 09:00:00 TS 11.3933 -99.4984 main 546 546 P_________P___ EP181984 11.3999 -99.5001 TD 25 -1 11.3734 -99.4934 1 25 10 271
1984282N11263 1984 93 EP MM RACHEL 1984-10-08 12:00:00 TS 11.4000 -100.000 25 hurdat_epa main 567 567 O_________O___ hurdat_epa EP181984 11.4000 -100.000 TD 25 -1 11.4000 -100.000 1 25 10 273
1984282N11263 1984 93 EP MM RACHEL 1984-10-08 15:00:00 TS 11.4415 -100.503 main 585 579 P_________P___ EP181984 11.4424 -100.492 TD 25 -1 11.4387 -100.534 1 26 10 276
1984282N11263 1984 93 EP MM RACHEL 1984-10-08 18:00:00 TS 11.4963 -101.018 25 hurdat_epa main 596 596 O_________P___ hurdat_epa EP181984 11.5000 -101.000 TD 25 -1 11.4850 -101.073 1 27 11 275
1984282N11263 1984 93 EP MM RACHEL 1984-10-08 21:00:00 TS 11.5416 -101.568 main 617 610 P_________P___ EP181984 11.5425 -101.558 TD 27 -1 11.5388 -101.600 1 28 11 276
1984282N11263 1984 93 EP MM RACHEL 1984-10-09 00:00:00 TS 11.6000 -102.100 30 hurdat_epa main 626 626 O_________O___ hurdat_epa EP181984 11.6000 -102.100 TD 30 -1 11.6000 -102.100 1 30 10 279
1984282N11263 1984 93 EP MM RACHEL 1984-10-09 03:00:00 TS 11.6908 -102.571 main 641 641 P_________P___ EP181984 11.6999 -102.572 TD 32 -1 11.6634 -102.566 1 33 9 282
1984282N11263 1984 93 EP MM RACHEL 1984-10-09 06:00:00 TS 11.7837 -103.001 35 hurdat_epa main 648 648 O_________P___ hurdat_epa EP181984 11.8000 -103.000 TS 35 0 11.7346 -103.003 1 37 8 280
1984282N11263 1984 93 EP MM RACHEL 1984-10-09 09:00:00 TS 11.8408 -103.415 main 663 657 P_________P___ EP181984 11.8499 -103.415 TS 40 0 11.8135 -103.413 1 41 8 278
1984282N11263 1984 93 EP MM RACHEL 1984-10-09 12:00:00 TS 11.9000 -103.800 45 hurdat_epa main 670 670 O_________O___ hurdat_epa EP181984 11.9000 -103.800 TS 45 0 11.9000 -103.800 2 45 7 282
1984282N11263 1984 93 EP MM RACHEL 1984-10-09 15:00:00 TS 11.9904 -104.160 main 680 680 P_________P___ EP181984 11.9924 -104.158 TS 47 0 11.9844 -104.168 2 46 7 286
1984282N11263 1984 93 EP MM RACHEL 1984-10-09 18:00:00 TS 12.0943 -104.504 50 hurdat_epa main 687 687 O_________P___ hurdat_epa EP181984 12.1000 -104.500 TS 50 0 12.0771 -104.515 2 47 7 286
1984282N11263 1984 93 EP MM RACHEL 1984-10-09 21:00:00 TS 12.1897 -104.851 main 694 690 P_________P___ EP181984 12.1925 -104.850 TS 50 0 12.1813 -104.855 2 48 7 287
1984282N11263 1984 93 EP MM RACHEL 1984-10-10 00:00:00 TS 12.3000 -105.200 50 hurdat_epa main 694 687 O_________O___ hurdat_epa EP181984 12.3000 -105.200 TS 50 0 12.3000 -105.200 2 50 7 290
1984282N11263 1984 93 EP MM RACHEL 1984-10-10 03:00:00 TS 12.4417 -105.549 main 694 683 P_________P___ EP181984 12.4424 -105.543 TS 52 0 12.4396 -105.568 2 51 8 293
1984282N11263 1984 93 EP MM RACHEL 1984-10-10 06:00:00 TS 12.5981 -105.911 55 hurdat_epa main 687 685 O_________P___ hurdat_epa EP181984 12.6000 -105.900 TS 55 0 12.5924 -105.942 2 52 8 292
1984282N11263 1984 93 EP MM RACHEL 1984-10-10 09:00:00 TS 12.7498 -106.311 main 694 684 P_________P___ EP181984 12.7500 -106.308 TS 55 0 12.7489 -106.321 2 53 8 291
1984282N11263 1984 93 EP MM RACHEL 1984-10-10 12:00:00 TS 12.9000 -106.700 55 hurdat_epa main 694 690 O_________O___ hurdat_epa EP181984 12.9000 -106.700 TS 55 0 12.9000 -106.700 2 55 7 294
1984282N11263 1984 93 EP MM RACHEL 1984-10-10 15:00:00 TS 13.0540 -107.011 main 692 692 P_________P___ EP181984 13.0573 -106.993 TS 55 0 13.0441 -107.067 2 55 7 295
1984282N11263 1984 93 EP MM RACHEL 1984-10-10 18:00:00 TS 13.1949 -107.334 55 hurdat_epa main 700 700 O_________P___ hurdat_epa EP181984 13.2000 -107.300 TS 55 0 13.1796 -107.435 2 55 8 290
1984282N11263 1984 93 EP MM RACHEL 1984-10-10 21:00:00 TS 13.3114 -107.748 main 717 717 P_________P___ EP181984 13.3150 -107.728 TS 55 0 13.3003 -107.811 2 55 9 284
1984282N11263 1984 93 EP MM RACHEL 1984-10-11 00:00:00 TS 13.4000 -108.200 55 hurdat_epa main 743 743 O_________O___ hurdat_epa EP181984 13.4000 -108.200 TS 55 0 13.4000 -108.200 2 55 9 280
1984282N11263 1984 93 EP MM RACHEL 1984-10-11 03:00:00 TS 13.4589 -108.643 main 755 755 P_________P___ EP181984 13.4575 -108.658 TS 55 0 13.4632 -108.599 2 53 9 277
1984282N11263 1984 93 EP MM RACHEL 1984-10-11 06:00:00 TS 13.5018 -109.078 55 hurdat_epa main 785 785 O_________P___ hurdat_epa EP181984 13.5000 -109.100 TS 55 0 13.5071 -109.013 2 52 8 276
1984282N11263 1984 93 EP MM RACHEL 1984-10-11 09:00:00 TS 13.5436 -109.481 main 811 802 P_________P___ EP181984 13.5423 -109.493 TS 52 0 13.5475 -109.446 2 51 8 277
1984282N11263 1984 93 EP MM RACHEL 1984-10-11 12:00:00 TS 13.6000 -109.900 50 hurdat_epa main 829 829 O_________O___ hurdat_epa EP181984 13.6000 -109.900 TS 50 0 13.6000 -109.900 2 50 9 280
1984282N11263 1984 93 EP MM RACHEL 1984-10-11 15:00:00 TS 13.6907 -110.383 main 857 857 P_________P___ EP181984 13.6925 -110.385 TS 40 0 13.6855 -110.378 2 45 10 281
1984282N11263 1984 93 EP MM RACHEL 1984-10-11 18:00:00 TS 13.7962 -110.894 30 hurdat_epa main 887 887 O_________P___ hurdat_epa EP181984 13.8000 -110.900 TD 30 -1 13.7849 -110.877 2 40 10 282
1984282N11263 1984 93 EP MM RACHEL 1984-10-11 21:00:00 TS 13.8979 -111.397 main 917 917 P_________P___ EP181984 13.8999 -111.400 TD 30 -1 13.8917 -111.388 2 35 10 282
1984282N11263 1984 93 EP MM RACHEL 1984-10-12 00:00:00 TS 14.0000 -111.900 30 hurdat_epa main 948 948 O_________O___ hurdat_epa EP181984 14.0000 -111.900 TD 30 -1 14.0000 -111.900 1 30 10 282
1984282N11263 1984 93 EP MM RACHEL 1984-10-12 03:00:00 TS 14.0999 -112.405 main 981 981 P_________P___ EP181984 14.0999 -112.400 TD 27 -1 14.1000 -112.420 1 28 10 282
1984282N11263 1984 93 EP MM RACHEL 1984-10-12 06:00:00 TS 14.2000 -112.909 25 hurdat_epa main 1015 1015 O_________P___ hurdat_epa EP181984 14.2000 -112.900 TD 25 -1 14.2000 -112.938 1 27 10 282
1984282N11263 1984 93 EP MM RACHEL 1984-10-12 09:00:00 TS 14.3000 -113.415 main 1026 1026 P_________P___ EP181984 14.2999 -113.408 TD 25 -1 14.3000 -113.436 1 26 10 282
1984282N11263 1984 93 EP MM RACHEL 1984-10-12 12:00:00 TS 14.4000 -113.900 25 hurdat_epa main 1035 1035 O_________O___ hurdat_epa EP181984 14.4000 -113.900 TD 25 -1 14.4000 -113.900 1 25 9 282
1984282N11263 1984 93 EP MM RACHEL 1984-10-12 15:00:00 TS 14.4989 -114.368 main 1047 1047 P_________P___ EP181984 14.5000 -114.380 TD 25 -1 14.4956 -114.331 1 25 9 283
1984282N11263 1984 93 EP MM RACHEL 1984-10-12 18:00:00 TS 14.5980 -114.781 25 hurdat_epa main 1056 1056 O_________P___ hurdat_epa EP181984 14.6000 -114.800 TD 25 -1 14.5922 -114.725 1 25 8 285
1984282N11263 1984 93 EP MM RACHEL 1984-10-12 21:00:00 TS 14.6981 -115.118 main 1062 1062 P_________P___ EP181984 14.6999 -115.130 TD 25 -1 14.6926 -115.081 1 25 6 289
1984282N11263 1984 93 EP MM RACHEL 1984-10-13 00:00:00 TS 14.8000 -115.400 25 hurdat_epa main 1069 1065 O_________O___ hurdat_epa EP181984 14.8000 -115.400 TD 25 -1 14.8000 -115.400 1 25 6 291
1984282N11263 1984 93 EP MM RACHEL 1984-10-13 03:00:00 TS 14.9007 -115.664 main 1076 1073 P_________P___ EP181984 14.8924 -115.658 TD 25 -1 14.9256 -115.682 1 25 5 294
1984282N11263 1984 93 EP MM RACHEL 1984-10-13 06:00:00 TS 15.0143 -115.908 25 hurdat_epa main 1079 1073 O_________P___ hurdat_epa EP181984 15.0000 -115.900 TD 25 -1 15.0571 -115.930 1 25 5 299
1984282N11263 1984 93 EP MM RACHEL 1984-10-13 09:00:00 TS 15.1587 -116.148 main 1073 1073 P_________P___ EP181984 15.1499 -116.143 TD 25 -1 15.1850 -116.163 1 25 6 301
1984282N11263 1984 93 EP MM RACHEL 1984-10-13 12:00:00 TS 15.3000 -116.400 25 hurdat_epa main 1083 1081 O_________O___ hurdat_epa EP181984 15.3000 -116.400 TD 25 -1 15.3000 -116.400 1 25 6 296
1984282N11263 1984 93 EP MM RACHEL 1984-10-13 15:00:00 TS 15.4117 -116.695 main 1094 1092 P_________P___ EP181984 15.4150 -116.700 TD 25 -1 15.4016 -116.680 1 25 6 289
1984282N11263 1984 93 EP MM RACHEL 1984-10-13 18:00:00 TS 15.4969 -116.991 25 hurdat_epa main 1106 1106 O_________P___ hurdat_epa EP181984 15.5000 -117.000 TD 25 -1 15.4876 -116.965 1 25 6 285
1984282N11263 1984 93 EP MM RACHEL 1984-10-13 21:00:00 TS 15.5624 -117.259 main 1119 1119 P_________P___ EP181984 15.5650 -117.265 TD 25 -1 15.5547 -117.242 1 25 5 282
1984282N11263 1984 93 EP MM RACHEL 1984-10-14 00:00:00 TS 15.6000 -117.500 25 hurdat_epa main 1133 1133 O_________O___ hurdat_epa EP181984 15.6000 -117.500 TD 25 -1 15.6000 -117.500 1 25 4 276
1984282N11263 1984 93 EP MM RACHEL 1984-10-14 03:00:00 TS 15.6120 -117.715 main 1148 1148 P_________P___ EP181984 15.6075 -117.708 TD 25 -1 15.6255 -117.738 1 25 4 271
1984282N11263 1984 93 EP MM RACHEL 1984-10-14 06:00:00 TS 15.6075 -117.913 25 hurdat_epa main 1163 1163 O_________P___ hurdat_epa EP181984 15.6000 -117.900 TD 25 -1 15.6299 -117.953 1 25 4 270
1984282N11263 1984 93 EP MM RACHEL 1984-10-14 09:00:00 TS 15.6105 -118.121 main 1178 1178 P_________P___ EP181984 15.6075 -118.115 TD 25 -1 15.6193 -118.141 1 25 4 269
1984282N11263 1984 93 EP MM RACHEL 1984-10-14 12:00:00 TS 15.6000 -118.300 25 hurdat_epa main 1193 1193 O_________O___ hurdat_epa EP181984 15.6000 -118.300 TD 25 -1 15.6000 -118.300 1 25 3 260
1984282N11263 1984 93 EP MM RACHEL 1984-10-14 15:00:00 TS 15.5590 -118.418 main 1201 1201 P_________P___ EP181984 15.5500 -118.415 TD 25 -1 15.5861 -118.429 1 25 2 247
1984282N11263 1984 93 EP MM RACHEL 1984-10-14 18:00:00 TS 15.5162 -118.507 25 hurdat_epa main 1216 1216 O_________P___ hurdat_epa EP181984 15.5000 -118.500 TD 25 -1 15.5649 -118.530 1 25 2 254
1984282N11263 1984 93 EP MM RACHEL 1984-10-14 21:00:00 TS 15.5090 -118.604 main 1224 1224 P_________P___ EP181984 15.5000 -118.600 TD 25 -1 15.5362 -118.616 1 25 2 265
1984282N11263 1984 93 EP MM RACHEL 1984-10-15 00:00:00 TS 15.5000 -118.700 25 hurdat_epa main 1232 1232 O_________O___ hurdat_epa EP181984 15.5000 -118.700 TD 25 -1 15.5000 -118.700 1 25 2 254
1984282N11263 1984 93 EP MM RACHEL 1984-10-15 03:00:00 TS 15.4554 -118.800 main 1239 1239 P_________P___ EP181984 15.4575 -118.800 TD 25 -1 15.4490 -118.800 1 25 2 242
1984282N11263 1984 93 EP MM RACHEL 1984-10-15 06:00:00 TS 15.3981 -118.900 25 hurdat_epa main 1255 1255 O_________P___ hurdat_epa EP181984 15.4000 -118.900 TD 25 -1 15.3925 -118.900 1 25 2 239
1984282N11263 1984 93 EP MM RACHEL 1984-10-15 09:00:00 TS 15.3418 -119.000 main 1270 1270 P_________P___ EP181984 15.3425 -119.000 TD 25 -1 15.3397 -119.000 1 25 2 243
1984282N11263 1984 93 EP MM RACHEL 1984-10-15 12:00:00 TS 15.3000 -119.100 25 hurdat_epa main 1278 1278 O_________O___ hurdat_epa EP181984 15.3000 -119.100 TD 25 -1 15.3000 -119.100 1 25 2 256
1984282N11263 1984 93 EP MM RACHEL 1984-10-15 15:00:00 TS 15.2918 -119.200 main 1285 1285 P_________P___ EP181984 15.2925 -119.200 TD 25 -1 15.2897 -119.200 1 25 2 269
1984282N11263 1984 93 EP MM RACHEL 1984-10-15 18:00:00 TS 15.2981 -119.300 25 hurdat_epa main 1292 1292 O_________P___ hurdat_epa EP181984 15.3000 -119.300 TD 25 -1 15.2925 -119.300 1 25 2 274
1984282N11263 1984 93 EP MM RACHEL 1984-10-15 21:00:00 TS 15.3054 -119.400 main 1298 1298 P_________P___ EP181984 15.3075 -119.400 TD 25 -1 15.2990 -119.400 1 25 2 271
1984282N11263 1984 93 EP MM RACHEL 1984-10-16 00:00:00 TS 15.3000 -119.500 25 hurdat_epa main 1304 1304 O_________O___ hurdat_epa EP181984 15.3000 -119.500 TD 25 -1 15.3000 -119.500 1 25 2 257
1984282N11263 1984 93 EP MM RACHEL 1984-10-16 03:00:00 TS 15.2595 -119.600 main 1310 1310 P_________P___ EP181984 15.2500 -119.600 TD 25 -1 15.2881 -119.600 1 25 2 246
1984282N11263 1984 93 EP MM RACHEL 1984-10-16 06:00:00 TS 15.2163 -119.700 25 hurdat_epa main 1325 1325 O_________P___ hurdat_epa EP181984 15.2000 -119.700 TD 25 -1 15.2650 -119.700 1 25 2 253
1984282N11263 1984 93 EP MM RACHEL 1984-10-16 09:00:00 TS 15.1992 -119.800 main 1332 1332 P_________P___ EP181984 15.1875 -119.800 TD 25 -1 15.2344 -119.800 1 25 2 265
1984282N11263 1984 93 EP MM RACHEL 1984-10-16 12:00:00 TS 15.2000 -119.900 25 hurdat_epa main 1338 O_________O___ hurdat_epa EP181984 15.2000 -119.900 TD 25 -1 15.2000 -119.900 1 25 2 270

IBTrACS Databaseについて

本データベースは、米国NOAAが公開する1842年以降の世界の熱帯低気圧のベストトラックデータアーカイブInternational Best Track Archive for Climate Stewardship (IBTrACS)を、ウェブで閲覧しやすい形式に変換したものです。

最終更新日:2021-10-21